»·PEaware :: DAL1116 KSLC-KLAX

DAL1116 :: KSLC-KLAX

FLIGHT INFORMATION

Flight Status: Arrived
Operator:
Delta Air Lines
More flights by this operator :: More flights under this callsign
Pilot: Anonymous 18613 (18613)
Aircraft: BOEING 737-800
(B738)
More flights by this aircraft type
Origin: KSLC Salt Lake City Intl
United States
Destination: KLAX Los Angeles Intl
United States
More flights between these airports :: More routes between these airports
Route: +ARCHZ1 WINEN LAKRR Q73 HAKMN ANJLL4
File this flight plan on PilotEdge
Remarks: PBN / A1B1C1D1S1S2 DOF / 181117 REG / N806SB EET / KZLA0033 OPR / DAL PER / C RMK / TCAS SIMBRIEF
Altitude:
(Current/Filed)
38,000ft
Speed:
(Current/Filed)
447kts
Departed: 16-Nov-18 07:41 PM
Arrived: 16-Nov-18 09:17 PM
Distance/Time
Traveled:
512nm/1:36
Distance/Time
To Go:
Arrived

Flight Plot

Page will automatically refresh every two minutes.

Flight plan parsing failed; only flown route is shown


Map Options




Map Legend


Flown Route
Filed Route
Departure Airport
Arrival Airport
Navaid (VOR, NDB)
Fix

Horizontal Profiles

Position Reports

Time Latitude Longitude Heading Altitude Ground
Speed
16-Nov-18 18:50 40.788529 -111.980852 282 4223ft 0kts
16-Nov-18 18:51 40.788529 -111.980852 282 4223ft 0kts
16-Nov-18 18:52 40.788529 -111.980852 282 4223ft 0kts
16-Nov-18 18:53 40.788529 -111.980852 282 4223ft 0kts
16-Nov-18 18:54 40.788529 -111.980852 282 4223ft 0kts
16-Nov-18 18:55 40.788529 -111.980852 282 4223ft 0kts
16-Nov-18 18:56 40.788529 -111.980852 282 4223ft 0kts
16-Nov-18 18:57 40.788529 -111.980852 282 4223ft 0kts
16-Nov-18 18:58 40.788529 -111.980852 282 4223ft 0kts
16-Nov-18 18:59 40.788529 -111.980852 282 4223ft 0kts
16-Nov-18 19:00 40.788529 -111.980852 282 4223ft 0kts
16-Nov-18 19:01 40.788529 -111.980852 282 4223ft 0kts
16-Nov-18 19:02 40.788529 -111.980852 282 4223ft 0kts
16-Nov-18 19:03 40.788529 -111.980852 282 4223ft 0kts
16-Nov-18 19:04 40.788529 -111.980852 282 4223ft 0kts
16-Nov-18 19:05 40.788529 -111.980852 282 4223ft 0kts
16-Nov-18 19:06 40.788529 -111.980852 282 4223ft 0kts
16-Nov-18 19:07 40.788529 -111.980852 282 4223ft 0kts
16-Nov-18 19:08 40.788529 -111.980852 282 4223ft 0kts
16-Nov-18 19:09 40.788529 -111.980852 282 4223ft 0kts
16-Nov-18 19:10 40.788529 -111.980852 282 4223ft 0kts
16-Nov-18 19:11 40.788529 -111.980852 282 4223ft 0kts
16-Nov-18 19:12 40.788529 -111.980852 282 4223ft 0kts
16-Nov-18 19:13 40.788529 -111.980852 282 4223ft 0kts
16-Nov-18 19:14 40.788529 -111.980852 282 4223ft 0kts
16-Nov-18 19:15 40.788529 -111.980852 282 4223ft 0kts
16-Nov-18 19:16 40.788529 -111.980852 282 4223ft 0kts
16-Nov-18 19:17 40.788529 -111.980852 282 4223ft 0kts
16-Nov-18 19:18 40.788529 -111.980852 282 4223ft 0kts
16-Nov-18 19:19 40.788529 -111.980852 282 4223ft 0kts
16-Nov-18 19:20 40.788529 -111.980852 282 4223ft 0kts
16-Nov-18 19:21 40.788529 -111.980852 282 4223ft 0kts
16-Nov-18 19:22 40.788529 -111.980852 282 4223ft 0kts
16-Nov-18 19:23 40.788529 -111.980852 282 4223ft 0kts
16-Nov-18 19:24 40.788529 -111.980852 282 4223ft 0kts
16-Nov-18 19:25 40.788529 -111.980852 282 4223ft 0kts
16-Nov-18 19:26 40.788529 -111.980852 282 4223ft 0kts
16-Nov-18 19:27 40.788529 -111.980852 282 4223ft 0kts
16-Nov-18 19:28 40.788529 -111.980852 282 4223ft 0kts
16-Nov-18 19:29 40.788529 -111.980852 282 4223ft 0kts
16-Nov-18 19:30 40.788529 -111.980852 282 4223ft 0kts
16-Nov-18 19:31 40.788529 -111.980852 282 4223ft 0kts
16-Nov-18 19:32 40.788529 -111.980852 282 4223ft 0kts
16-Nov-18 19:33 40.788529 -111.980852 282 4223ft 0kts
16-Nov-18 19:34 40.788529 -111.980852 282 4223ft 0kts
16-Nov-18 19:35 40.788302 -111.980533 340 4224ft 0kts
16-Nov-18 19:36 40.789322 -111.979956 34 4224ft 0kts
16-Nov-18 19:37 40.789629 -111.979681 33 4223ft 0kts
16-Nov-18 19:38 40.789808 -111.979471 50 4224ft 5kts
16-Nov-18 19:39 40.788035 -111.976884 174 4224ft 19kts
16-Nov-18 19:40 40.782063 -111.976174 175 4227ft 28kts
16-Nov-18 19:41 40.775602 -111.975277 164 4227ft 7kts
16-Nov-18 19:42 40.774543 -111.974440 98 4227ft 0kts
16-Nov-18 19:43 40.774983 -111.973213 18 4227ft 8kts
16-Nov-18 19:44 40.779824 -111.973742 355 4227ft 100kts
16-Nov-18 19:45 40.826794 -111.986299 324 5821ft 203kts
16-Nov-18 19:46 40.866267 -112.052421 304 7826ft 234kts
16-Nov-18 19:47 40.910726 -112.132418 306 8880ft 291kts
16-Nov-18 19:48 40.947349 -112.219108 261 9060ft 297kts
16-Nov-18 19:49 40.891643 -112.296455 183 11291ft 326kts
16-Nov-18 19:50 40.803600 -112.292168 182 14062ft 338kts
16-Nov-18 19:51 40.712234 -112.303755 196 16962ft 344kts
16-Nov-18 19:52 40.620572 -112.341638 192 19684ft 350kts
16-Nov-18 19:53 40.525801 -112.381450 189 20871ft 385kts
16-Nov-18 19:54 40.429075 -112.404258 199 22715ft 329kts
16-Nov-18 19:55 40.338388 -112.433330 193 24603ft 335kts
16-Nov-18 19:56 40.250839 -112.451056 195 27464ft 308kts
16-Nov-18 19:57 40.167202 -112.482340 215 29387ft 297kts
16-Nov-18 19:58 40.095619 -112.532445 215 31656ft 272kts
16-Nov-18 19:59 40.021869 -112.581176 213 31786ft 316kts
16-Nov-18 20:00 39.939701 -112.638487 213 32120ft 351kts
16-Nov-18 20:01 39.855929 -112.696876 213 33729ft 341kts
16-Nov-18 20:02 39.774975 -112.753142 213 35564ft 320kts
16-Nov-18 20:03 39.699684 -112.805351 214 37370ft 294kts
16-Nov-18 20:04 39.624069 -112.842094 202 38153ft 305kts
16-Nov-18 20:05 39.538415 -112.875950 202 38150ft 340kts
16-Nov-18 20:06 39.443504 -112.913648 201 38151ft 375kts
16-Nov-18 20:07 39.339807 -112.954712 201 38147ft 407kts
16-Nov-18 20:08 39.227792 -112.998944 200 38146ft 436kts
16-Nov-18 20:09 39.109036 -113.045684 200 38131ft 456kts
16-Nov-18 20:10 38.988331 -113.092966 200 38120ft 454kts
16-Nov-18 20:11 38.869903 -113.139183 201 38116ft 442kts
16-Nov-18 20:12 38.752724 -113.184866 201 38117ft 444kts
16-Nov-18 20:13 38.635244 -113.230515 201 38116ft 443kts
16-Nov-18 20:14 38.517474 -113.276117 201 38116ft 443kts
16-Nov-18 20:15 38.399752 -113.321544 201 38116ft 443kts
16-Nov-18 20:16 38.302025 -113.359137 201 38116ft 443kts
16-Nov-18 20:17 38.165784 -113.411368 201 38119ft 443kts
16-Nov-18 20:18 38.048227 -113.456280 201 38125ft 443kts
16-Nov-18 20:19 37.950014 -113.493680 201 38125ft 443kts
16-Nov-18 20:20 37.815780 -113.551010 204 38123ft 441kts
16-Nov-18 20:21 37.719130 -113.593062 204 38121ft 442kts
16-Nov-18 20:22 37.603142 -113.643323 204 38111ft 442kts
16-Nov-18 20:23 37.488192 -113.692952 203 38106ft 442kts
16-Nov-18 20:24 37.352669 -113.751237 203 38103ft 442kts
16-Nov-18 20:25 37.255810 -113.792763 203 38102ft 442kts
16-Nov-18 20:26 37.139828 -113.842340 203 38102ft 442kts
16-Nov-18 20:27 37.024175 -113.891582 204 38101ft 437kts
16-Nov-18 20:28 36.910560 -113.939796 204 38102ft 431kts
16-Nov-18 20:29 36.797935 -113.987504 204 38100ft 433kts
16-Nov-18 20:30 36.684356 -114.035457 204 38100ft 432kts
16-Nov-18 20:31 36.570879 -114.083225 204 38096ft 432kts
16-Nov-18 20:32 36.457884 -114.130643 204 38085ft 432kts
16-Nov-18 20:33 36.346137 -114.177391 204 38079ft 432kts
16-Nov-18 20:34 36.234673 -114.223878 204 38072ft 432kts
16-Nov-18 20:35 36.123313 -114.271622 210 38067ft 428kts
16-Nov-18 20:36 36.033266 -114.358144 232 38074ft 414kts
16-Nov-18 20:37 35.957781 -114.462653 232 38069ft 413kts
16-Nov-18 20:38 35.882873 -114.566165 232 38067ft 413kts
16-Nov-18 20:39 35.807978 -114.669308 232 38076ft 413kts
16-Nov-18 20:40 35.732538 -114.772742 232 38075ft 414kts
16-Nov-18 20:41 35.656201 -114.877095 232 38073ft 414kts
16-Nov-18 20:42 35.580104 -114.981150 232 38073ft 414kts
16-Nov-18 20:43 35.503361 -115.085771 232 38080ft 416kts
16-Nov-18 20:44 35.424136 -115.189435 231 38075ft 419kts
16-Nov-18 20:45 35.344773 -115.292793 231 37552ft 417kts
16-Nov-18 20:46 35.265322 -115.396022 231 37036ft 417kts
16-Nov-18 20:47 35.185953 -115.498839 231 36187ft 416kts
16-Nov-18 20:48 35.106350 -115.601582 231 35167ft 418kts
16-Nov-18 20:49 35.031175 -115.697619 230 34230ft 418kts
16-Nov-18 20:50 34.950757 -115.800121 230 33266ft 426kts
16-Nov-18 20:51 34.869814 -115.903012 229 32304ft 432kts
16-Nov-18 20:52 34.786471 -116.008607 229 31314ft 437kts
16-Nov-18 20:53 34.702241 -116.115741 230 30317ft 441kts
16-Nov-18 20:54 34.617025 -116.224065 229 29314ft 446kts
16-Nov-18 20:55 34.530846 -116.333267 229 28310ft 451kts
16-Nov-18 20:56 34.444344 -116.442515 229 27312ft 456kts
16-Nov-18 20:57 34.378149 -116.570512 246 26315ft 452kts
16-Nov-18 20:58 34.323041 -116.704726 246 24945ft 438kts
16-Nov-18 20:59 34.275521 -116.822905 247 24051ft 349kts
16-Nov-18 21:00 34.233118 -116.928314 247 24065ft 350kts
16-Nov-18 21:01 34.196046 -117.034958 255 22997ft 352kts
16-Nov-18 21:02 34.166846 -117.146326 254 19725ft 358kts
16-Nov-18 21:03 34.135886 -117.259313 253 16031ft 357kts
16-Nov-18 21:04 34.106681 -117.364993 253 14096ft 317kts
16-Nov-18 21:05 34.082187 -117.461901 254 12552ft 299kts
16-Nov-18 21:06 34.053643 -117.553890 247 11407ft 296kts
16-Nov-18 21:07 34.021250 -117.643201 247 10425ft 288kts
16-Nov-18 21:08 34.002299 -117.722029 264 9397ft 219kts
16-Nov-18 21:09 33.996109 -117.791630 264 8507ft 207kts
16-Nov-18 21:10 33.989510 -117.859860 264 7656ft 204kts
16-Nov-18 21:11 33.982937 -117.927462 264 6814ft 202kts
16-Nov-18 21:12 33.976402 -117.993860 263 5987ft 200kts
16-Nov-18 21:13 33.969870 -118.059832 263 5167ft 197kts
16-Nov-18 21:14 33.963534 -118.124189 263 4212ft 183kts
16-Nov-18 21:15 33.957791 -118.181644 264 3323ft 172kts
16-Nov-18 21:16 33.952142 -118.237402 263 2452ft 169kts
16-Nov-18 21:17 33.946401 -118.293256 263 1989ft 168kts
16-Nov-18 21:18 33.940530 -118.350056 264 847ft 173kts
16-Nov-18 21:19 33.935975 -118.396035 265 109ft 44kts
16-Nov-18 21:20 33.936446 -118.402571 268 119ft 24kts
16-Nov-18 21:21 33.937950 -118.404321 345 121ft 11kts
16-Nov-18 21:22 33.938775 -118.405379 325 122ft 14kts
16-Nov-18 21:23 33.940915 -118.408849 271 124ft 9kts
16-Nov-18 21:24 33.940860 -118.409499 263 124ft 0kts
16-Nov-18 21:25 33.940860 -118.409499 263 124ft 0kts
16-Nov-18 21:26 33.940860 -118.409499 263 124ft 0kts
16-Nov-18 21:27 33.940860 -118.409499 263 124ft 0kts

Navigation Log

Ident Type
Flight plan parsing failed, navigation log unavailable